sensor_id;sensor_type;location;lat;lon;timestamp;P1;durP1;ratioP1;P2;durP2;ratioP2
43893;SDS011;29556;50.846;4.442;2022-10-15T00:00:36;3.38;;;2.05;;
43893;SDS011;29556;50.846;4.442;2022-10-15T00:03:03;4.60;;;2.00;;
43893;SDS011;29556;50.846;4.442;2022-10-15T00:05:28;7.22;;;2.72;;
43893;SDS011;29556;50.846;4.442;2022-10-15T00:07:54;5.72;;;2.40;;
43893;SDS011;29556;50.846;4.442;2022-10-15T00:10:20;6.55;;;2.40;;
43893;SDS011;29556;50.846;4.442;2022-10-15T00:12:46;5.10;;;2.28;;
43893;SDS011;29556;50.846;4.442;2022-10-15T00:15:12;4.28;;;2.15;;
43893;SDS011;29556;50.846;4.442;2022-10-15T00:17:38;7.22;;;2.33;;
43893;SDS011;29556;50.846;4.442;2022-10-15T00:20:05;8.18;;;3.13;;
43893;SDS011;29556;50.846;4.442;2022-10-15T00:22:32;4.18;;;2.47;;
43893;SDS011;29556;50.846;4.442;2022-10-15T00:24:58;5.63;;;2.22;;
43893;SDS011;29556;50.846;4.442;2022-10-15T00:27:24;5.78;;;2.28;;
43893;SDS011;29556;50.846;4.442;2022-10-15T00:29:50;3.85;;;2.30;;
43893;SDS011;29556;50.846;4.442;2022-10-15T00:32:16;3.05;;;1.80;;
43893;SDS011;29556;50.846;4.442;2022-10-15T00:34:42;5.30;;;2.25;;
43893;SDS011;29556;50.846;4.442;2022-10-15T00:37:07;10.13;;;1.83;;
43893;SDS011;29556;50.846;4.442;2022-10-15T00:39:33;5.57;;;3.22;;
43893;SDS011;29556;50.846;4.442;2022-10-15T00:41:59;6.30;;;2.53;;
43893;SDS011;29556;50.846;4.442;2022-10-15T00:52:08;4.32;;;2.10;;
43893;SDS011;29556;50.846;4.442;2022-10-15T00:54:44;3.70;;;1.80;;
43893;SDS011;29556;50.846;4.442;2022-10-15T00:57:13;5.53;;;2.13;;
43893;SDS011;29556;50.846;4.442;2022-10-15T00:59:46;3.42;;;2.22;;
43893;SDS011;29556;50.846;4.442;2022-10-15T01:02:15;4.88;;;2.47;;
43893;SDS011;29556;50.846;4.442;2022-10-15T01:04:42;4.05;;;2.20;;
43893;SDS011;29556;50.846;4.442;2022-10-15T01:07:08;4.32;;;2.05;;
43893;SDS011;29556;50.846;4.442;2022-10-15T01:09:34;4.68;;;1.85;;
43893;SDS011;29556;50.846;4.442;2022-10-15T01:12:00;5.90;;;1.95;;
43893;SDS011;29556;50.846;4.442;2022-10-15T01:17:31;4.55;;;2.17;;
43893;SDS011;29556;50.846;4.442;2022-10-15T01:26:30;5.68;;;2.45;;
43893;SDS011;29556;50.846;4.442;2022-10-15T01:29:20;4.55;;;1.95;;
43893;SDS011;29556;50.846;4.442;2022-10-15T01:37:33;5.05;;;2.38;;
43893;SDS011;29556;50.846;4.442;2022-10-15T01:40:30;6.07;;;2.67;;
43893;SDS011;29556;50.846;4.442;2022-10-15T01:43:10;5.15;;;2.22;;
43893;SDS011;29556;50.846;4.442;2022-10-15T01:45:45;4.38;;;2.65;;
43893;SDS011;29556;50.846;4.442;2022-10-15T01:48:18;5.28;;;2.40;;
43893;SDS011;29556;50.846;4.442;2022-10-15T01:50:47;7.18;;;2.42;;
43893;SDS011;29556;50.846;4.442;2022-10-15T01:53:16;4.38;;;1.98;;
43893;SDS011;29556;50.846;4.442;2022-10-15T01:55:50;3.85;;;2.22;;
43893;SDS011;29556;50.846;4.442;2022-10-15T01:58:20;4.07;;;2.17;;
43893;SDS011;29556;50.846;4.442;2022-10-15T02:00:48;7.80;;;2.17;;
43893;SDS011;29556;50.846;4.442;2022-10-15T02:03:15;4.40;;;1.80;;
43893;SDS011;29556;50.846;4.442;2022-10-15T02:05:45;6.05;;;2.03;;
43893;SDS011;29556;50.846;4.442;2022-10-15T02:16:10;2.65;;;1.60;;
43893;SDS011;29556;50.846;4.442;2022-10-15T02:18:47;4.25;;;2.10;;
43893;SDS011;29556;50.846;4.442;2022-10-15T02:23:46;5.03;;;2.35;;
43893;SDS011;29556;50.846;4.442;2022-10-15T02:26:18;6.22;;;2.30;;
43893;SDS011;29556;50.846;4.442;2022-10-15T02:28:47;5.03;;;2.22;;
43893;SDS011;29556;50.846;4.442;2022-10-15T02:31:17;4.32;;;2.22;;
43893;SDS011;29556;50.846;4.442;2022-10-15T02:33:46;5.47;;;1.70;;
43893;SDS011;29556;50.846;4.442;2022-10-15T02:36:14;3.47;;;1.70;;
43893;SDS011;29556;50.846;4.442;2022-10-15T02:38:41;4.60;;;1.92;;
43893;SDS011;29556;50.846;4.442;2022-10-15T02:41:09;7.70;;;2.78;;
43893;SDS011;29556;50.846;4.442;2022-10-15T02:43:37;5.93;;;2.78;;
43893;SDS011;29556;50.846;4.442;2022-10-15T02:46:04;3.53;;;1.58;;
43893;SDS011;29556;50.846;4.442;2022-10-15T02:48:34;7.20;;;1.80;;
43893;SDS011;29556;50.846;4.442;2022-10-15T02:50:59;3.95;;;2.25;;
43893;SDS011;29556;50.846;4.442;2022-10-15T02:53:25;5.63;;;2.67;;
43893;SDS011;29556;50.846;4.442;2022-10-15T02:55:50;3.53;;;1.40;;
43893;SDS011;29556;50.846;4.442;2022-10-15T02:58:16;3.75;;;1.80;;
43893;SDS011;29556;50.846;4.442;2022-10-15T03:00:42;3.75;;;1.65;;
43893;SDS011;29556;50.846;4.442;2022-10-15T03:03:07;5.38;;;2.05;;
43893;SDS011;29556;50.846;4.442;2022-10-15T03:05:33;5.88;;;2.17;;
43893;SDS011;29556;50.846;4.442;2022-10-15T03:07:59;3.45;;;1.98;;
43893;SDS011;29556;50.846;4.442;2022-10-15T03:10:25;4.13;;;1.70;;
43893;SDS011;29556;50.846;4.442;2022-10-15T03:12:50;4.50;;;2.05;;
43893;SDS011;29556;50.846;4.442;2022-10-15T03:15:16;4.88;;;2.30;;
43893;SDS011;29556;50.846;4.442;2022-10-15T03:17:42;3.95;;;1.98;;
43893;SDS011;29556;50.846;4.442;2022-10-15T03:20:07;5.28;;;2.35;;
43893;SDS011;29556;50.846;4.442;2022-10-15T03:22:33;6.35;;;2.58;;
43893;SDS011;29556;50.846;4.442;2022-10-15T03:24:59;2.58;;;1.85;;
43893;SDS011;29556;50.846;4.442;2022-10-15T03:27:24;4.35;;;1.55;;
43893;SDS011;29556;50.846;4.442;2022-10-15T03:29:51;6.00;;;2.33;;
43893;SDS011;29556;50.846;4.442;2022-10-15T03:32:16;2.13;;;1.25;;
43893;SDS011;29556;50.846;4.442;2022-10-15T03:34:42;4.68;;;2.13;;
43893;SDS011;29556;50.846;4.442;2022-10-15T03:37:08;3.70;;;1.98;;
43893;SDS011;29556;50.846;4.442;2022-10-15T03:39:33;3.45;;;2.22;;
43893;SDS011;29556;50.846;4.442;2022-10-15T03:41:59;5.13;;;2.38;;
43893;SDS011;29556;50.846;4.442;2022-10-15T03:44:24;4.50;;;2.20;;
43893;SDS011;29556;50.846;4.442;2022-10-15T03:46:50;3.63;;;1.63;;
43893;SDS011;29556;50.846;4.442;2022-10-15T03:49:16;4.45;;;1.75;;
43893;SDS011;29556;50.846;4.442;2022-10-15T03:51:41;2.67;;;2.05;;
43893;SDS011;29556;50.846;4.442;2022-10-15T03:54:07;4.97;;;2.00;;
43893;SDS011;29556;50.846;4.442;2022-10-15T03:56:33;4.88;;;1.90;;
43893;SDS011;29556;50.846;4.442;2022-10-15T03:58:59;5.03;;;2.58;;
43893;SDS011;29556;50.846;4.442;2022-10-15T04:01:24;6.28;;;2.70;;
43893;SDS011;29556;50.846;4.442;2022-10-15T04:03:51;5.43;;;2.13;;
43893;SDS011;29556;50.846;4.442;2022-10-15T04:06:17;2.95;;;1.40;;
43893;SDS011;29556;50.846;4.442;2022-10-15T04:08:43;3.28;;;1.48;;
43893;SDS011;29556;50.846;4.442;2022-10-15T04:11:09;5.00;;;1.80;;
43893;SDS011;29556;50.846;4.442;2022-10-15T04:13:34;6.32;;;1.90;;
43893;SDS011;29556;50.846;4.442;2022-10-15T04:16:02;4.70;;;2.17;;
43893;SDS011;29556;50.846;4.442;2022-10-15T04:18:29;2.78;;;1.58;;
43893;SDS011;29556;50.846;4.442;2022-10-15T04:20:58;2.83;;;1.35;;
43893;SDS011;29556;50.846;4.442;2022-10-15T04:23:24;3.10;;;1.27;;
43893;SDS011;29556;50.846;4.442;2022-10-15T04:25:50;3.05;;;1.85;;
43893;SDS011;29556;50.846;4.442;2022-10-15T04:28:15;4.25;;;1.73;;
43893;SDS011;29556;50.846;4.442;2022-10-15T04:30:41;2.88;;;1.48;;
43893;SDS011;29556;50.846;4.442;2022-10-15T04:33:07;2.92;;;1.50;;
43893;SDS011;29556;50.846;4.442;2022-10-15T04:35:33;2.63;;;2.15;;
43893;SDS011;29556;50.846;4.442;2022-10-15T04:37:59;12.73;;;1.60;;
43893;SDS011;29556;50.846;4.442;2022-10-15T04:40:25;1.13;;;0.85;;
43893;SDS011;29556;50.846;4.442;2022-10-15T04:42:51;3.17;;;1.67;;
43893;SDS011;29556;50.846;4.442;2022-10-15T04:45:16;1.95;;;0.95;;
43893;SDS011;29556;50.846;4.442;2022-10-15T04:47:42;2.53;;;1.25;;
43893;SDS011;29556;50.846;4.442;2022-10-15T04:50:09;2.05;;;1.27;;
43893;SDS011;29556;50.846;4.442;2022-10-15T04:52:34;2.17;;;1.27;;
43893;SDS011;29556;50.846;4.442;2022-10-15T04:55:00;2.95;;;1.20;;
43893;SDS011;29556;50.846;4.442;2022-10-15T04:57:27;2.78;;;1.30;;
43893;SDS011;29556;50.846;4.442;2022-10-15T04:59:53;2.47;;;0.90;;
43893;SDS011;29556;50.846;4.442;2022-10-15T05:02:18;3.67;;;1.35;;
43893;SDS011;29556;50.846;4.442;2022-10-15T05:04:44;2.47;;;1.08;;
43893;SDS011;29556;50.846;4.442;2022-10-15T05:07:10;2.58;;;0.90;;
43893;SDS011;29556;50.846;4.442;2022-10-15T05:09:35;1.88;;;0.77;;
43893;SDS011;29556;50.846;4.442;2022-10-15T05:12:01;2.63;;;1.10;;
43893;SDS011;29556;50.846;4.442;2022-10-15T05:14:27;2.88;;;1.17;;
43893;SDS011;29556;50.846;4.442;2022-10-15T05:16:52;3.20;;;1.35;;
43893;SDS011;29556;50.846;4.442;2022-10-15T05:19:18;1.35;;;0.82;;
43893;SDS011;29556;50.846;4.442;2022-10-15T05:21:44;2.45;;;0.82;;
43893;SDS011;29556;50.846;4.442;2022-10-15T05:24:09;2.40;;;1.27;;
43893;SDS011;29556;50.846;4.442;2022-10-15T05:26:35;2.22;;;0.80;;
43893;SDS011;29556;50.846;4.442;2022-10-15T05:29:01;1.50;;;1.23;;
43893;SDS011;29556;50.846;4.442;2022-10-15T05:31:28;1.98;;;0.80;;
43893;SDS011;29556;50.846;4.442;2022-10-15T05:33:55;3.03;;;0.68;;
43893;SDS011;29556;50.846;4.442;2022-10-15T05:36:22;1.48;;;0.80;;
43893;SDS011;29556;50.846;4.442;2022-10-15T05:38:52;1.98;;;0.90;;
43893;SDS011;29556;50.846;4.442;2022-10-15T05:41:22;1.33;;;0.73;;
43893;SDS011;29556;50.846;4.442;2022-10-15T05:43:49;3.67;;;0.70;;
43893;SDS011;29556;50.846;4.442;2022-10-15T05:46:16;1.20;;;0.65;;
43893;SDS011;29556;50.846;4.442;2022-10-15T05:48:46;2.08;;;0.65;;
43893;SDS011;29556;50.846;4.442;2022-10-15T05:51:16;2.75;;;0.80;;
43893;SDS011;29556;50.846;4.442;2022-10-15T05:53:42;1.77;;;0.88;;
43893;SDS011;29556;50.846;4.442;2022-10-15T05:56:10;2.50;;;0.73;;
43893;SDS011;29556;50.846;4.442;2022-10-15T05:58:37;1.00;;;0.70;;
43893;SDS011;29556;50.846;4.442;2022-10-15T06:01:07;1.83;;;0.63;;
43893;SDS011;29556;50.846;4.442;2022-10-15T06:03:34;1.30;;;0.70;;
43893;SDS011;29556;50.846;4.442;2022-10-15T06:06:00;3.30;;;1.20;;
43893;SDS011;29556;50.846;4.442;2022-10-15T06:08:27;0.82;;;0.30;;
43893;SDS011;29556;50.846;4.442;2022-10-15T06:10:54;0.98;;;0.52;;
43893;SDS011;29556;50.846;4.442;2022-10-15T06:13:20;1.17;;;0.75;;
43893;SDS011;29556;50.846;4.442;2022-10-15T06:15:47;0.80;;;0.47;;
43893;SDS011;29556;50.846;4.442;2022-10-15T06:18:13;1.42;;;0.40;;
43893;SDS011;29556;50.846;4.442;2022-10-15T06:20:41;2.28;;;0.82;;
43893;SDS011;29556;50.846;4.442;2022-10-15T06:23:08;1.48;;;1.00;;
43893;SDS011;29556;50.846;4.442;2022-10-15T06:25:34;0.60;;;0.40;;
43893;SDS011;29556;50.846;4.442;2022-10-15T06:28:00;1.73;;;0.90;;
43893;SDS011;29556;50.846;4.442;2022-10-15T06:30:27;0.88;;;0.40;;
43893;SDS011;29556;50.846;4.442;2022-10-15T06:32:53;1.15;;;0.50;;
43893;SDS011;29556;50.846;4.442;2022-10-15T06:35:20;1.15;;;0.95;;
43893;SDS011;29556;50.846;4.442;2022-10-15T06:37:46;1.17;;;0.60;;
43893;SDS011;29556;50.846;4.442;2022-10-15T06:40:12;4.00;;;0.88;;
43893;SDS011;29556;50.846;4.442;2022-10-15T06:42:39;1.95;;;0.80;;
43893;SDS011;29556;50.846;4.442;2022-10-15T06:45:05;1.30;;;1.10;;
43893;SDS011;29556;50.846;4.442;2022-10-15T06:47:32;1.25;;;0.60;;
43893;SDS011;29556;50.846;4.442;2022-10-15T06:49:58;0.68;;;0.50;;
43893;SDS011;29556;50.846;4.442;2022-10-15T06:52:24;1.08;;;0.73;;
43893;SDS011;29556;50.846;4.442;2022-10-15T06:54:50;1.33;;;0.60;;
43893;SDS011;29556;50.846;4.442;2022-10-15T06:57:16;1.63;;;0.68;;
43893;SDS011;29556;50.846;4.442;2022-10-15T06:59:41;8.63;;;0.60;;
43893;SDS011;29556;50.846;4.442;2022-10-15T07:02:10;1.38;;;0.65;;
43893;SDS011;29556;50.846;4.442;2022-10-15T07:04:38;3.50;;;1.20;;
43893;SDS011;29556;50.846;4.442;2022-10-15T07:07:04;0.85;;;0.73;;
43893;SDS011;29556;50.846;4.442;2022-10-15T07:09:29;1.00;;;0.65;;
43893;SDS011;29556;50.846;4.442;2022-10-15T07:11:55;0.98;;;0.63;;
43893;SDS011;29556;50.846;4.442;2022-10-15T07:14:21;2.40;;;0.50;;
43893;SDS011;29556;50.846;4.442;2022-10-15T07:16:46;1.30;;;0.70;;
43893;SDS011;29556;50.846;4.442;2022-10-15T07:19:12;1.45;;;0.70;;
43893;SDS011;29556;50.846;4.442;2022-10-15T07:21:38;1.23;;;0.55;;
43893;SDS011;29556;50.846;4.442;2022-10-15T07:24:04;1.10;;;0.65;;
43893;SDS011;29556;50.846;4.442;2022-10-15T07:26:30;0.70;;;0.50;;
43893;SDS011;29556;50.846;4.442;2022-10-15T07:28:56;0.65;;;0.63;;
43893;SDS011;29556;50.846;4.442;2022-10-15T07:31:23;0.80;;;0.60;;
43893;SDS011;29556;50.846;4.442;2022-10-15T07:33:50;0.93;;;0.60;;
43893;SDS011;29556;50.846;4.442;2022-10-15T07:36:15;1.38;;;0.50;;
43893;SDS011;29556;50.846;4.442;2022-10-15T07:38:41;1.75;;;0.55;;
43893;SDS011;29556;50.846;4.442;2022-10-15T07:41:08;1.02;;;0.90;;
43893;SDS011;29556;50.846;4.442;2022-10-15T07:43:35;0.85;;;0.40;;
43893;SDS011;29556;50.846;4.442;2022-10-15T07:46:01;1.27;;;0.63;;
43893;SDS011;29556;50.846;4.442;2022-10-15T07:48:28;0.98;;;0.60;;
43893;SDS011;29556;50.846;4.442;2022-10-15T07:50:55;1.45;;;0.38;;
43893;SDS011;29556;50.846;4.442;2022-10-15T07:53:24;0.50;;;0.50;;
43893;SDS011;29556;50.846;4.442;2022-10-15T07:55:51;0.80;;;0.40;;
43893;SDS011;29556;50.846;4.442;2022-10-15T07:58:17;1.02;;;0.40;;
43893;SDS011;29556;50.846;4.442;2022-10-15T08:00:44;0.50;;;0.20;;
43893;SDS011;29556;50.846;4.442;2022-10-15T08:03:10;0.40;;;0.38;;
43893;SDS011;29556;50.846;4.442;2022-10-15T08:05:36;0.50;;;0.28;;
43893;SDS011;29556;50.846;4.442;2022-10-15T08:08:03;0.40;;;0.30;;
43893;SDS011;29556;50.846;4.442;2022-10-15T08:10:32;0.88;;;0.20;;
43893;SDS011;29556;50.846;4.442;2022-10-15T08:12:58;0.25;;;0.20;;
43893;SDS011;29556;50.846;4.442;2022-10-15T08:15:23;0.75;;;0.32;;
43893;SDS011;29556;50.846;4.442;2022-10-15T08:18:01;0.40;;;0.17;;
43893;SDS011;29556;50.846;4.442;2022-10-15T08:20:26;0.50;;;0.35;;
43893;SDS011;29556;50.846;4.442;2022-10-15T08:22:52;0.88;;;0.30;;
43893;SDS011;29556;50.846;4.442;2022-10-15T08:25:18;0.20;;;0.10;;
43893;SDS011;29556;50.846;4.442;2022-10-15T08:27:43;0.40;;;0.20;;
43893;SDS011;29556;50.846;4.442;2022-10-15T08:30:09;0.00;;;0.00;;
43893;SDS011;29556;50.846;4.442;2022-10-15T08:32:35;0.28;;;0.28;;
43893;SDS011;29556;50.846;4.442;2022-10-15T08:35:00;0.00;;;0.00;;
43893;SDS011;29556;50.846;4.442;2022-10-15T08:37:26;0.10;;;0.10;;
43893;SDS011;29556;50.846;4.442;2022-10-15T08:39:52;0.15;;;0.10;;
43893;SDS011;29556;50.846;4.442;2022-10-15T08:42:22;0.32;;;0.10;;
43893;SDS011;29556;50.846;4.442;2022-10-15T08:45:01;0.00;;;0.00;;
43893;SDS011;29556;50.846;4.442;2022-10-15T08:47:36;0.10;;;0.10;;
43893;SDS011;29556;50.846;4.442;2022-10-15T08:52:56;0.00;;;0.00;;
43893;SDS011;29556;50.846;4.442;2022-10-15T08:55:23;0.00;;;0.00;;
43893;SDS011;29556;50.846;4.442;2022-10-15T09:00:40;0.00;;;0.00;;
43893;SDS011;29556;50.846;4.442;2022-10-15T09:03:23;0.43;;;0.10;;
43893;SDS011;29556;50.846;4.442;2022-10-15T09:08:54;1.20;;;0.55;;
43893;SDS011;29556;50.846;4.442;2022-10-15T09:14:10;0.10;;;0.10;;
43893;SDS011;29556;50.846;4.442;2022-10-15T09:16:40;0.10;;;0.03;;
43893;SDS011;29556;50.846;4.442;2022-10-15T09:19:20;0.68;;;0.10;;
43893;SDS011;29556;50.846;4.442;2022-10-15T09:21:48;0.00;;;0.00;;
43893;SDS011;29556;50.846;4.442;2022-10-15T09:24:18;0.15;;;0.00;;
43893;SDS011;29556;50.846;4.442;2022-10-15T09:29:58;0.20;;;0.00;;
43893;SDS011;29556;50.846;4.442;2022-10-15T09:32:47;0.00;;;0.00;;
43893;SDS011;29556;50.846;4.442;2022-10-15T09:35:33;0.00;;;0.00;;
43893;SDS011;29556;50.846;4.442;2022-10-15T09:43:52;0.00;;;0.00;;
43893;SDS011;29556;50.846;4.442;2022-10-15T09:46:21;0.00;;;0.00;;
43893;SDS011;29556;50.846;4.442;2022-10-15T09:51:48;0.00;;;0.00;;
43893;SDS011;29556;50.846;4.442;2022-10-15T09:57:33;0.00;;;0.00;;
43893;SDS011;29556;50.846;4.442;2022-10-15T10:00:01;0.00;;;0.00;;
43893;SDS011;29556;50.846;4.442;2022-10-15T10:02:30;0.00;;;0.00;;
43893;SDS011;29556;50.846;4.442;2022-10-15T10:04:55;0.00;;;0.00;;
43893;SDS011;29556;50.846;4.442;2022-10-15T10:07:41;0.00;;;0.00;;
43893;SDS011;29556;50.846;4.442;2022-10-15T10:10:26;0.40;;;0.13;;
43893;SDS011;29556;50.846;4.442;2022-10-15T10:12:54;0.28;;;0.10;;
43893;SDS011;29556;50.846;4.442;2022-10-15T10:17:52;0.30;;;0.30;;
43893;SDS011;29556;50.846;4.442;2022-10-15T10:20:20;0.00;;;0.00;;
43893;SDS011;29556;50.846;4.442;2022-10-15T10:22:56;0.20;;;0.17;;
43893;SDS011;29556;50.846;4.442;2022-10-15T10:30:38;0.22;;;0.10;;
43893;SDS011;29556;50.846;4.442;2022-10-15T10:33:13;0.00;;;0.00;;
43893;SDS011;29556;50.846;4.442;2022-10-15T10:35:53;0.45;;;0.13;;
43893;SDS011;29556;50.846;4.442;2022-10-15T10:38:28;0.30;;;0.30;;
43893;SDS011;29556;50.846;4.442;2022-10-15T10:41:08;0.10;;;0.10;;
43893;SDS011;29556;50.846;4.442;2022-10-15T10:43:39;0.10;;;0.10;;
43893;SDS011;29556;50.846;4.442;2022-10-15T10:46:19;0.10;;;0.10;;
43893;SDS011;29556;50.846;4.442;2022-10-15T10:48:59;0.10;;;0.10;;
43893;SDS011;29556;50.846;4.442;2022-10-15T10:51:27;0.10;;;0.07;;
43893;SDS011;29556;50.846;4.442;2022-10-15T10:56:22;0.00;;;0.00;;
43893;SDS011;29556;50.846;4.442;2022-10-15T11:01:58;0.00;;;0.00;;
43893;SDS011;29556;50.846;4.442;2022-10-15T11:04:37;0.10;;;0.00;;
43893;SDS011;29556;50.846;4.442;2022-10-15T11:12:29;0.10;;;0.10;;
43893;SDS011;29556;50.846;4.442;2022-10-15T11:20:23;0.10;;;0.10;;
43893;SDS011;29556;50.846;4.442;2022-10-15T11:34:51;0.30;;;0.10;;
43893;SDS011;29556;50.846;4.442;2022-10-15T11:46:07;0.10;;;0.10;;
43893;SDS011;29556;50.846;4.442;2022-10-15T11:57:42;0.60;;;0.22;;
43893;SDS011;29556;50.846;4.442;2022-10-15T12:03:39;0.73;;;0.10;;
43893;SDS011;29556;50.846;4.442;2022-10-15T12:06:14;0.50;;;0.10;;
43893;SDS011;29556;50.846;4.442;2022-10-15T12:08:43;0.25;;;0.10;;
43893;SDS011;29556;50.846;4.442;2022-10-15T12:11:18;0.15;;;0.10;;
43893;SDS011;29556;50.846;4.442;2022-10-15T12:19:22;0.10;;;0.10;;
43893;SDS011;29556;50.846;4.442;2022-10-15T12:30:29;0.20;;;0.17;;
43893;SDS011;29556;50.846;4.442;2022-10-15T12:32:42;0.15;;;0.10;;
43893;SDS011;29556;50.846;4.442;2022-10-15T12:35:23;0.80;;;0.13;;
43893;SDS011;29556;50.846;4.442;2022-10-15T12:37:56;0.03;;;0.03;;
43893;SDS011;29556;50.846;4.442;2022-10-15T12:40:35;0.00;;;0.00;;
43893;SDS011;29556;50.846;4.442;2022-10-15T12:45:39;0.40;;;0.17;;
43893;SDS011;29556;50.846;4.442;2022-10-15T12:50:46;0.00;;;0.00;;
43893;SDS011;29556;50.846;4.442;2022-10-15T12:58:55;0.38;;;0.10;;
43893;SDS011;29556;50.846;4.442;2022-10-15T13:08:48;0.20;;;0.20;;
43893;SDS011;29556;50.846;4.442;2022-10-15T13:11:24;0.00;;;0.00;;
43893;SDS011;29556;50.846;4.442;2022-10-15T13:14:00;0.20;;;0.20;;
43893;SDS011;29556;50.846;4.442;2022-10-15T13:16:34;0.10;;;0.10;;
43893;SDS011;29556;50.846;4.442;2022-10-15T13:19:00;0.28;;;0.28;;
43893;SDS011;29556;50.846;4.442;2022-10-15T13:21:49;0.10;;;0.00;;
43893;SDS011;29556;50.846;4.442;2022-10-15T13:24:27;0.00;;;0.00;;
43893;SDS011;29556;50.846;4.442;2022-10-15T13:26:55;0.10;;;0.03;;
43893;SDS011;29556;50.846;4.442;2022-10-15T13:29:24;0.20;;;0.20;;
43893;SDS011;29556;50.846;4.442;2022-10-15T13:31:53;0.30;;;0.20;;
43893;SDS011;29556;50.846;4.442;2022-10-15T13:34:29;0.10;;;0.03;;
43893;SDS011;29556;50.846;4.442;2022-10-15T13:37:00;5.15;;;0.05;;
43893;SDS011;29556;50.846;4.442;2022-10-15T13:39:40;0.08;;;0.08;;
43893;SDS011;29556;50.846;4.442;2022-10-15T13:44:42;2.17;;;0.20;;
43893;SDS011;29556;50.846;4.442;2022-10-15T13:47:29;0.00;;;0.00;;
43893;SDS011;29556;50.846;4.442;2022-10-15T13:50:12;2.15;;;0.10;;
43893;SDS011;29556;50.846;4.442;2022-10-15T13:52:47;0.43;;;0.30;;
43893;SDS011;29556;50.846;4.442;2022-10-15T13:55:17;0.10;;;0.10;;
43893;SDS011;29556;50.846;4.442;2022-10-15T13:57:48;0.10;;;0.10;;
43893;SDS011;29556;50.846;4.442;2022-10-15T14:00:22;0.32;;;0.20;;
43893;SDS011;29556;50.846;4.442;2022-10-15T14:03:06;0.00;;;0.00;;
43893;SDS011;29556;50.846;4.442;2022-10-15T14:05:41;0.22;;;0.00;;
43893;SDS011;29556;50.846;4.442;2022-10-15T14:08:16;0.03;;;0.03;;
43893;SDS011;29556;50.846;4.442;2022-10-15T14:10:47;0.13;;;0.00;;
43893;SDS011;29556;50.846;4.442;2022-10-15T14:13:13;0.00;;;0.00;;
43893;SDS011;29556;50.846;4.442;2022-10-15T14:15:43;0.60;;;0.10;;
43893;SDS011;29556;50.846;4.442;2022-10-15T14:18:33;0.20;;;0.00;;
43893;SDS011;29556;50.846;4.442;2022-10-15T14:21:01;0.55;;;0.10;;
43893;SDS011;29556;50.846;4.442;2022-10-15T14:23:28;0.00;;;0.00;;
43893;SDS011;29556;50.846;4.442;2022-10-15T14:25:55;0.10;;;0.10;;
43893;SDS011;29556;50.846;4.442;2022-10-15T14:28:24;1.90;;;0.10;;
43893;SDS011;29556;50.846;4.442;2022-10-15T14:30:51;0.10;;;0.10;;
43893;SDS011;29556;50.846;4.442;2022-10-15T14:38:39;0.10;;;0.10;;
43893;SDS011;29556;50.846;4.442;2022-10-15T14:44:03;0.08;;;0.00;;
43893;SDS011;29556;50.846;4.442;2022-10-15T14:46:40;0.15;;;0.15;;
43893;SDS011;29556;50.846;4.442;2022-10-15T14:49:13;0.00;;;0.00;;
43893;SDS011;29556;50.846;4.442;2022-10-15T14:52:03;0.00;;;0.00;;
43893;SDS011;29556;50.846;4.442;2022-10-15T14:54:39;0.47;;;0.30;;
43893;SDS011;29556;50.846;4.442;2022-10-15T14:57:15;0.00;;;0.00;;
43893;SDS011;29556;50.846;4.442;2022-10-15T14:59:47;0.98;;;0.00;;
43893;SDS011;29556;50.846;4.442;2022-10-15T15:02:13;0.00;;;0.00;;
43893;SDS011;29556;50.846;4.442;2022-10-15T15:04:41;0.00;;;0.00;;
43893;SDS011;29556;50.846;4.442;2022-10-15T15:07:18;0.28;;;0.10;;
43893;SDS011;29556;50.846;4.442;2022-10-15T15:09:48;0.10;;;0.08;;
43893;SDS011;29556;50.846;4.442;2022-10-15T15:12:19;0.00;;;0.00;;
43893;SDS011;29556;50.846;4.442;2022-10-15T15:14:48;0.00;;;0.00;;
43893;SDS011;29556;50.846;4.442;2022-10-15T15:17:18;0.08;;;0.00;;
43893;SDS011;29556;50.846;4.442;2022-10-15T15:19:48;0.00;;;0.00;;
43893;SDS011;29556;50.846;4.442;2022-10-15T15:22:16;0.00;;;0.00;;
43893;SDS011;29556;50.846;4.442;2022-10-15T15:24:47;0.10;;;0.10;;
43893;SDS011;29556;50.846;4.442;2022-10-15T15:27:17;0.00;;;0.00;;
43893;SDS011;29556;50.846;4.442;2022-10-15T15:29:55;0.10;;;0.10;;
43893;SDS011;29556;50.846;4.442;2022-10-15T15:32:22;0.05;;;0.05;;
43893;SDS011;29556;50.846;4.442;2022-10-15T15:34:49;0.00;;;0.00;;
43893;SDS011;29556;50.846;4.442;2022-10-15T15:37:17;0.50;;;0.25;;
43893;SDS011;29556;50.846;4.442;2022-10-15T15:39:46;0.03;;;0.03;;
43893;SDS011;29556;50.846;4.442;2022-10-15T15:42:14;2.08;;;0.20;;
43893;SDS011;29556;50.846;4.442;2022-10-15T15:44:42;3.90;;;1.13;;
43893;SDS011;29556;50.846;4.442;2022-10-15T15:47:08;0.30;;;0.10;;
43893;SDS011;29556;50.846;4.442;2022-10-15T15:49:34;0.20;;;0.20;;
43893;SDS011;29556;50.846;4.442;2022-10-15T15:52:00;0.63;;;0.10;;
43893;SDS011;29556;50.846;4.442;2022-10-15T15:54:26;0.63;;;0.45;;
43893;SDS011;29556;50.846;4.442;2022-10-15T15:56:52;0.10;;;0.00;;
43893;SDS011;29556;50.846;4.442;2022-10-15T15:59:18;0.10;;;0.10;;
43893;SDS011;29556;50.846;4.442;2022-10-15T16:01:44;0.00;;;0.00;;
43893;SDS011;29556;50.846;4.442;2022-10-15T16:04:11;0.10;;;0.00;;
43893;SDS011;29556;50.846;4.442;2022-10-15T16:06:37;0.00;;;0.00;;
43893;SDS011;29556;50.846;4.442;2022-10-15T16:09:03;0.95;;;0.10;;
43893;SDS011;29556;50.846;4.442;2022-10-15T16:11:30;0.80;;;0.68;;
43893;SDS011;29556;50.846;4.442;2022-10-15T16:13:56;0.10;;;0.10;;
43893;SDS011;29556;50.846;4.442;2022-10-15T16:16:22;0.73;;;0.00;;
43893;SDS011;29556;50.846;4.442;2022-10-15T16:18:50;0.35;;;0.10;;
43893;SDS011;29556;50.846;4.442;2022-10-15T16:21:25;0.28;;;0.10;;
43893;SDS011;29556;50.846;4.442;2022-10-15T16:23:52;0.30;;;0.17;;
43893;SDS011;29556;50.846;4.442;2022-10-15T16:26:17;0.35;;;0.35;;
43893;SDS011;29556;50.846;4.442;2022-10-15T16:28:43;0.40;;;0.10;;
43893;SDS011;29556;50.846;4.442;2022-10-15T16:33:52;0.00;;;0.00;;
43893;SDS011;29556;50.846;4.442;2022-10-15T16:36:19;0.15;;;0.15;;
43893;SDS011;29556;50.846;4.442;2022-10-15T16:38:45;0.52;;;0.10;;
43893;SDS011;29556;50.846;4.442;2022-10-15T16:41:11;0.10;;;0.10;;
43893;SDS011;29556;50.846;4.442;2022-10-15T16:43:39;0.00;;;0.00;;
43893;SDS011;29556;50.846;4.442;2022-10-15T16:46:05;0.20;;;0.17;;
43893;SDS011;29556;50.846;4.442;2022-10-15T16:48:31;0.82;;;0.10;;
43893;SDS011;29556;50.846;4.442;2022-10-15T16:51:09;1.45;;;0.88;;
43893;SDS011;29556;50.846;4.442;2022-10-15T16:53:37;0.22;;;0.00;;
43893;SDS011;29556;50.846;4.442;2022-10-15T16:56:08;0.13;;;0.13;;
43893;SDS011;29556;50.846;4.442;2022-10-15T16:58:45;0.00;;;0.00;;
43893;SDS011;29556;50.846;4.442;2022-10-15T17:01:12;0.00;;;0.00;;
43893;SDS011;29556;50.846;4.442;2022-10-15T17:03:39;0.57;;;0.30;;
43893;SDS011;29556;50.846;4.442;2022-10-15T17:06:07;0.00;;;0.00;;
43893;SDS011;29556;50.846;4.442;2022-10-15T17:11:11;0.00;;;0.00;;
43893;SDS011;29556;50.846;4.442;2022-10-15T17:13:38;0.45;;;0.20;;
43893;SDS011;29556;50.846;4.442;2022-10-15T17:16:08;0.00;;;0.00;;
43893;SDS011;29556;50.846;4.442;2022-10-15T17:18:36;0.75;;;0.10;;
43893;SDS011;29556;50.846;4.442;2022-10-15T17:21:12;0.10;;;0.10;;
43893;SDS011;29556;50.846;4.442;2022-10-15T17:23:39;0.35;;;0.10;;
43893;SDS011;29556;50.846;4.442;2022-10-15T17:26:09;0.20;;;0.20;;
43893;SDS011;29556;50.846;4.442;2022-10-15T17:28:37;3.40;;;0.22;;
43893;SDS011;29556;50.846;4.442;2022-10-15T17:31:08;3.15;;;0.47;;
43893;SDS011;29556;50.846;4.442;2022-10-15T17:33:36;1.70;;;1.15;;
43893;SDS011;29556;50.846;4.442;2022-10-15T17:36:04;1.05;;;0.50;;
43893;SDS011;29556;50.846;4.442;2022-10-15T17:38:38;2.67;;;1.30;;
43893;SDS011;29556;50.846;4.442;2022-10-15T17:41:06;2.15;;;1.33;;
43893;SDS011;29556;50.846;4.442;2022-10-15T17:43:33;1.55;;;0.50;;